createdAt,value
2022-12-05T00:00:37.768Z,17.92
2022-12-05T00:02:10.925Z,18.85
2022-12-05T00:03:42.846Z,16.63
2022-12-05T00:05:15.798Z,18.17
2022-12-05T00:06:48.542Z,18.67
2022-12-05T00:08:21.343Z,16.95
2022-12-05T00:09:54.160Z,17.98
2022-12-05T00:11:28.928Z,17.73
2022-12-05T00:13:01.638Z,17.35
2022-12-05T00:14:34.459Z,16.70
2022-12-05T00:16:09.696Z,16.92
2022-12-05T00:17:42.525Z,17.45
2022-12-05T00:19:16.900Z,17.40
2022-12-05T00:20:50.152Z,18.17
2022-12-05T00:22:22.846Z,18.33
2022-12-05T00:23:56.183Z,18.30
2022-12-05T00:25:28.968Z,17.73
2022-12-05T00:27:01.695Z,18.38
2022-12-05T00:28:34.323Z,17.38
2022-12-05T00:30:08.331Z,18.10
2022-12-05T00:31:42.658Z,17.90
2022-12-05T00:33:15.434Z,17.80
2022-12-05T00:34:48.343Z,18.40
2022-12-05T00:36:22.929Z,18.45
2022-12-05T00:37:55.701Z,19.23
2022-12-05T00:39:28.488Z,18.80
2022-12-05T00:41:04.055Z,18.50
2022-12-05T00:42:36.771Z,19.02
2022-12-05T00:44:10.360Z,19.50
2022-12-05T00:45:43.120Z,18.27
2022-12-05T00:47:17.570Z,18.70
2022-12-05T00:48:49.988Z,17.38
2022-12-05T00:50:22.688Z,18.25
2022-12-05T00:51:55.499Z,18.95
2022-12-05T00:53:27.252Z,18.65
2022-12-05T00:55:00.005Z,18.67
2022-12-05T00:56:32.599Z,18.57
2022-12-05T00:58:05.504Z,18.50
2022-12-05T00:59:38.245Z,18.40
2022-12-05T01:01:11.838Z,18.80
2022-12-05T01:02:45.984Z,18.23
2022-12-05T01:04:20.487Z,18.08
2022-12-05T01:05:52.230Z,17.30
2022-12-05T01:07:24.951Z,18.08
2022-12-05T01:08:58.790Z,17.80
2022-12-05T01:10:31.538Z,17.45
2022-12-05T01:12:04.395Z,17.25
2022-12-05T01:13:36.609Z,18.40
2022-12-05T01:15:10.871Z,18.63
2022-12-05T01:16:45.189Z,18.40
2022-12-05T01:18:18.494Z,18.27
2022-12-05T01:19:51.210Z,19.42
2022-12-05T01:21:23.509Z,17.73
2022-12-05T01:22:56.213Z,18.50
2022-12-05T01:24:30.388Z,17.95
2022-12-05T01:26:05.996Z,17.85
2022-12-05T01:27:38.824Z,18.33
2022-12-05T01:29:13.105Z,18.33
2022-12-05T01:30:49.125Z,19.80
2022-12-05T01:32:22.007Z,18.05
2022-12-05T01:33:58.330Z,17.75
2022-12-05T01:35:32.729Z,17.75
2022-12-05T01:37:05.584Z,17.85
2022-12-05T01:38:38.600Z,17.00
2022-12-05T01:40:11.763Z,18.92
2022-12-05T01:41:46.374Z,17.30
2022-12-05T01:43:18.863Z,17.95
2022-12-05T01:45:14.195Z,18.00
2022-12-05T01:46:48.803Z,17.48
2022-12-05T01:48:26.570Z,18.40
2022-12-05T01:50:00.864Z,17.30
2022-12-05T01:51:35.368Z,17.92
2022-12-05T01:53:07.167Z,17.58
2022-12-05T01:54:40.349Z,17.52
2022-12-05T01:56:14.224Z,16.80
2022-12-05T01:57:47.830Z,18.88
2022-12-05T01:59:22.891Z,17.30
2022-12-05T02:00:55.619Z,17.85
2022-12-05T02:02:29.583Z,16.85
2022-12-05T02:04:04.584Z,18.70
2022-12-05T02:05:39.367Z,18.02
2022-12-05T02:07:11.173Z,18.48
2022-12-05T02:08:45.509Z,18.92
2022-12-05T02:10:17.693Z,18.70
2022-12-05T02:11:55.035Z,17.88
2022-12-05T02:13:43.988Z,18.08
2022-12-05T02:15:42.816Z,17.30
2022-12-05T02:17:24.639Z,17.23
2022-12-05T02:19:21.438Z,17.92
2022-12-05T02:21:10.384Z,17.30
2022-12-05T02:23:22.452Z,17.02
2022-12-05T02:25:08.850Z,17.27
2022-12-05T02:27:01.443Z,18.20
2022-12-05T02:29:03.873Z,16.60
2022-12-05T02:30:41.294Z,16.48
2022-12-05T02:32:20.727Z,17.83
2022-12-05T02:34:00.976Z,18.17
2022-12-05T02:35:42.467Z,18.33
2022-12-05T02:37:21.745Z,17.80
2022-12-05T02:39:03.438Z,17.02
2022-12-05T02:40:44.121Z,17.27
2022-12-05T02:42:22.651Z,18.50
2022-12-05T02:44:00.202Z,18.75
2022-12-05T02:45:35.963Z,17.58
2022-12-05T02:47:12.770Z,18.10
2022-12-05T02:48:47.755Z,18.08
2022-12-05T02:50:22.806Z,17.38
2022-12-05T02:51:59.919Z,18.02
2022-12-05T02:53:33.819Z,18.33
2022-12-05T02:55:08.324Z,17.80
2022-12-05T02:56:44.673Z,18.20
2022-12-05T02:58:22.183Z,17.73
2022-12-05T02:59:55.051Z,18.85
2022-12-05T03:01:31.654Z,18.33
2022-12-05T03:03:16.299Z,18.50
2022-12-05T03:04:49.012Z,18.00
2022-12-05T03:06:26.111Z,18.25
2022-12-05T03:08:03.756Z,18.67
2022-12-05T03:09:41.265Z,18.02
2022-12-05T03:11:15.435Z,18.00
2022-12-05T03:12:55.696Z,18.95
2022-12-05T03:14:32.136Z,18.15
2022-12-05T03:16:09.841Z,18.40
2022-12-05T03:17:50.083Z,18.30
2022-12-05T03:19:27.325Z,16.92
2022-12-05T03:21:06.200Z,17.85
2022-12-05T03:22:44.063Z,18.08
2022-12-05T03:24:17.409Z,16.55
2022-12-05T03:26:01.841Z,17.38
2022-12-05T03:27:44.615Z,17.30
2022-12-05T03:29:25.942Z,17.30
2022-12-05T03:31:04.065Z,17.60
2022-12-05T03:32:41.411Z,17.20
2022-12-05T03:34:16.887Z,17.05
2022-12-05T03:35:59.384Z,17.20
2022-12-05T03:37:42.566Z,16.30
2022-12-05T03:39:23.047Z,16.55
2022-12-05T03:41:01.974Z,16.75
2022-12-05T03:42:38.361Z,16.92
2022-12-05T03:44:19.797Z,16.90
2022-12-05T03:45:58.898Z,17.08
2022-12-05T03:47:36.106Z,16.40
2022-12-05T03:49:14.223Z,16.05
2022-12-05T03:50:48.710Z,16.98
2022-12-05T03:52:28.464Z,16.73
2022-12-05T03:54:05.594Z,16.83
2022-12-05T03:55:39.680Z,17.38
2022-12-05T03:57:17.289Z,15.70
2022-12-05T03:58:56.372Z,16.10
2022-12-05T04:00:35.066Z,16.67
2022-12-05T04:02:13.519Z,15.82
2022-12-05T04:03:51.676Z,16.80
2022-12-05T04:05:27.726Z,16.60
2022-12-05T04:07:03.765Z,16.70
2022-12-05T04:08:42.742Z,17.33
2022-12-05T04:10:19.169Z,17.50
2022-12-05T04:11:55.792Z,16.98
2022-12-05T04:13:33.433Z,16.35
2022-12-05T04:15:12.146Z,16.75
2022-12-05T04:17:04.337Z,16.50
2022-12-05T04:18:38.956Z,16.80
2022-12-05T04:20:33.146Z,16.80
2022-12-05T04:22:05.908Z,16.98
2022-12-05T04:23:41.453Z,17.83
2022-12-05T04:25:34.858Z,16.98
2022-12-05T04:27:19.930Z,17.48
2022-12-05T04:29:01.800Z,17.58
2022-12-05T04:30:38.806Z,16.65
2022-12-05T04:32:14.419Z,16.90
2022-12-05T04:33:52.584Z,17.13
2022-12-05T04:35:30.036Z,17.20
2022-12-05T04:37:07.610Z,16.48
2022-12-05T04:38:51.635Z,17.35
2022-12-05T04:40:28.900Z,17.17
2022-12-05T04:42:04.959Z,17.45
2022-12-05T04:43:40.423Z,18.05
2022-12-05T04:45:16.735Z,17.88
2022-12-05T04:46:51.426Z,18.50
2022-12-05T04:48:26.696Z,19.05
2022-12-05T04:50:00.689Z,18.27
2022-12-05T04:51:36.103Z,19.92
2022-12-05T04:53:11.582Z,20.25
2022-12-05T04:54:50.396Z,20.48
2022-12-05T04:56:26.270Z,19.52
2022-12-05T04:58:07.217Z,19.85
2022-12-05T04:59:39.035Z,21.35
2022-12-05T05:01:16.197Z,20.42
2022-12-05T05:02:55.741Z,21.00
2022-12-05T05:04:33.135Z,19.77
2022-12-05T05:06:06.604Z,20.92
2022-12-05T05:07:44.062Z,21.42
2022-12-05T05:09:16.824Z,21.00
2022-12-05T05:11:00.469Z,19.98
2022-12-05T05:12:33.206Z,21.60
2022-12-05T05:14:06.309Z,20.40
2022-12-05T05:15:39.092Z,21.48
2022-12-05T05:17:11.868Z,21.45
2022-12-05T05:18:44.842Z,21.60
2022-12-05T05:20:27.198Z,22.17
2022-12-05T05:22:00.318Z,21.83
2022-12-05T05:23:33.030Z,22.17
2022-12-05T05:25:06.117Z,20.88
2022-12-05T05:26:42.565Z,22.27
2022-12-05T05:28:15.258Z,21.38
2022-12-05T05:29:47.039Z,20.35
2022-12-05T05:31:21.139Z,20.75
2022-12-05T05:32:54.355Z,21.33
2022-12-05T05:34:28.619Z,20.48
2022-12-05T05:36:04.312Z,21.75
2022-12-05T05:37:37.040Z,20.13
2022-12-05T05:39:14.829Z,20.63
2022-12-05T05:40:47.559Z,20.83
2022-12-05T05:42:20.667Z,20.40
2022-12-05T05:43:54.054Z,22.00
2022-12-05T05:45:26.750Z,20.48
2022-12-05T05:46:59.538Z,19.48
2022-12-05T05:48:32.383Z,20.88
2022-12-05T05:50:04.986Z,20.33
2022-12-05T05:51:37.739Z,20.50
2022-12-05T05:53:10.507Z,20.17
2022-12-05T05:54:43.331Z,20.88
2022-12-05T05:56:21.446Z,20.67
2022-12-05T05:57:56.318Z,20.40
2022-12-05T05:59:29.064Z,20.85
2022-12-05T06:01:05.104Z,21.45
2022-12-05T06:02:38.245Z,19.30
2022-12-05T06:04:11.151Z,20.20
2022-12-05T06:05:46.422Z,21.88
2022-12-05T06:07:22.821Z,20.65
2022-12-05T06:08:55.639Z,21.48
2022-12-05T06:10:29.729Z,21.40
2022-12-05T06:12:02.501Z,21.27
2022-12-05T06:13:36.703Z,21.23
2022-12-05T06:15:10.434Z,20.15
2022-12-05T06:16:43.287Z,20.48
2022-12-05T06:18:16.127Z,21.42
2022-12-05T06:19:48.915Z,20.08
2022-12-05T06:21:22.533Z,21.23
2022-12-05T06:22:55.236Z,21.17
2022-12-05T06:24:28.045Z,20.60
2022-12-05T06:26:00.785Z,20.98
2022-12-05T06:27:33.869Z,22.00
2022-12-05T06:29:07.966Z,21.60
2022-12-05T06:30:40.705Z,20.67
2022-12-05T06:32:13.428Z,20.90
2022-12-05T06:33:46.822Z,20.83
2022-12-05T06:35:19.565Z,21.13
2022-12-05T06:36:52.270Z,22.10
2022-12-05T06:38:24.974Z,21.25
2022-12-05T06:39:57.861Z,20.15
2022-12-05T06:41:31.074Z,20.80
2022-12-05T06:43:03.794Z,21.33
2022-12-05T06:44:38.041Z,21.20
2022-12-05T06:46:13.900Z,21.50
2022-12-05T06:47:46.712Z,21.90
2022-12-05T06:49:19.462Z,21.08
2022-12-05T06:50:53.363Z,21.58
2022-12-05T06:52:26.080Z,21.60
2022-12-05T06:53:58.828Z,22.00
2022-12-05T06:55:31.562Z,21.60
2022-12-05T06:57:04.360Z,21.45
2022-12-05T06:58:37.072Z,19.05
2022-12-05T07:00:30.071Z,18.92
2022-12-05T07:02:02.950Z,18.63
2022-12-05T07:03:34.731Z,20.50
2022-12-05T07:05:07.829Z,19.33
2022-12-05T07:06:45.011Z,20.55
2022-12-05T07:08:20.275Z,19.80
2022-12-05T07:09:53.766Z,19.55
2022-12-05T07:11:26.842Z,19.15
2022-12-05T07:12:59.586Z,20.48
2022-12-05T07:14:47.139Z,17.55
2022-12-05T07:16:22.031Z,17.88
2022-12-05T07:17:54.820Z,18.70
2022-12-05T07:19:27.586Z,18.23
2022-12-05T07:21:17.075Z,18.10
2022-12-05T07:22:49.812Z,18.33
2022-12-05T07:24:22.559Z,19.23
2022-12-05T07:25:55.563Z,19.80
2022-12-05T07:27:28.577Z,19.40
2022-12-05T07:29:01.339Z,19.98
2022-12-05T07:30:34.068Z,18.83
2022-12-05T07:32:09.121Z,18.35
2022-12-05T07:33:42.199Z,19.55
2022-12-05T07:35:15.093Z,18.33
2022-12-05T07:36:47.867Z,19.10
2022-12-05T07:38:19.614Z,18.02
2022-12-05T07:39:53.372Z,19.95
2022-12-05T07:41:28.444Z,17.77
2022-12-05T07:43:01.165Z,18.83
2022-12-05T07:44:34.827Z,19.02
2022-12-05T07:46:08.871Z,19.08
2022-12-05T07:47:43.096Z,19.08
2022-12-05T07:49:16.104Z,18.15
2022-12-05T07:50:48.894Z,18.98
2022-12-05T07:52:21.670Z,19.08
2022-12-05T07:53:54.427Z,18.98
2022-12-05T07:55:27.185Z,19.25
2022-12-05T07:56:59.937Z,19.70
2022-12-05T07:58:33.927Z,19.67
2022-12-05T08:00:07.983Z,20.02
2022-12-05T08:01:40.755Z,19.65
2022-12-05T08:03:14.829Z,22.02
2022-12-05T08:04:47.599Z,21.27
2022-12-05T08:06:22.179Z,21.63
2022-12-05T08:07:54.926Z,21.13
2022-12-05T08:09:27.949Z,21.42
2022-12-05T08:11:05.035Z,20.30
2022-12-05T08:12:38.143Z,20.05
2022-12-05T08:14:14.572Z,19.40
2022-12-05T08:15:47.307Z,18.63
2022-12-05T08:17:20.202Z,20.25
2022-12-05T08:18:56.746Z,20.40
2022-12-05T08:20:30.431Z,19.85
2022-12-05T08:22:03.201Z,19.45
2022-12-05T08:23:36.297Z,21.08
2022-12-05T08:25:09.826Z,20.77
2022-12-05T08:26:42.875Z,20.15
2022-12-05T08:28:15.958Z,20.33
2022-12-05T08:29:48.894Z,20.40
2022-12-05T08:31:24.208Z,21.45
2022-12-05T08:32:57.124Z,20.67
2022-12-05T08:34:31.319Z,21.40
2022-12-05T08:36:05.234Z,21.05
2022-12-05T08:37:37.992Z,20.55
2022-12-05T08:39:14.845Z,20.35
2022-12-05T08:40:47.938Z,20.30
2022-12-05T08:42:20.668Z,20.05
2022-12-05T08:43:53.867Z,21.23
2022-12-05T08:45:26.650Z,20.95
2022-12-05T08:46:59.369Z,20.58
2022-12-05T08:48:33.351Z,21.33
2022-12-05T08:50:09.121Z,20.92
2022-12-05T08:51:42.531Z,20.83
2022-12-05T08:53:16.051Z,21.13
2022-12-05T08:54:48.785Z,20.23
2022-12-05T08:56:26.613Z,20.40
2022-12-05T08:58:00.035Z,20.25
2022-12-05T08:59:32.786Z,20.25
2022-12-05T09:01:06.733Z,20.52
2022-12-05T09:02:39.578Z,19.75
2022-12-05T09:04:13.057Z,20.42
2022-12-05T09:05:47.129Z,20.52
2022-12-05T09:07:19.851Z,19.67
2022-12-05T09:08:54.850Z,20.27
2022-12-05T09:10:27.948Z,20.50
2022-12-05T09:12:00.938Z,19.48
2022-12-05T09:13:33.648Z,19.83
2022-12-05T09:15:09.346Z,18.88
2022-12-05T09:16:44.279Z,19.30
2022-12-05T09:18:16.991Z,20.15
2022-12-05T09:19:52.388Z,19.45
2022-12-05T09:21:28.006Z,19.70
2022-12-05T09:23:00.732Z,18.60
2022-12-05T09:24:33.503Z,18.98
2022-12-05T09:26:07.781Z,18.90
2022-12-05T09:27:40.518Z,18.60
2022-12-05T09:29:18.101Z,18.48
2022-12-05T09:30:57.895Z,18.95
2022-12-05T09:32:30.774Z,18.75
2022-12-05T09:34:03.971Z,17.23
2022-12-05T09:35:40.489Z,19.10
2022-12-05T09:37:37.649Z,19.55
2022-12-05T09:39:08.347Z,19.15
2022-12-05T09:40:43.684Z,19.55
2022-12-05T09:42:44.739Z,20.02
2022-12-05T09:44:26.055Z,19.38
2022-12-05T09:46:05.602Z,19.30
2022-12-05T09:47:56.188Z,19.27
2022-12-05T09:49:30.859Z,19.50
2022-12-05T09:51:04.608Z,19.98
2022-12-05T09:52:42.121Z,19.42
2022-12-05T09:54:16.360Z,19.55
2022-12-05T09:55:53.410Z,19.83
2022-12-05T09:57:34.747Z,20.20
2022-12-05T09:59:15.686Z,20.27
2022-12-05T10:00:50.541Z,18.63
2022-12-05T10:02:30.125Z,18.33
2022-12-05T10:04:25.780Z,18.30
2022-12-05T10:06:11.214Z,17.77
2022-12-05T10:07:53.823Z,17.92
2022-12-05T10:09:48.575Z,18.27
2022-12-05T10:11:30.304Z,17.92
2022-12-05T10:13:14.847Z,18.33
2022-12-05T10:14:57.869Z,16.52
2022-12-05T10:16:34.130Z,17.27
2022-12-05T10:18:15.016Z,17.70
2022-12-05T10:19:50.944Z,18.25
2022-12-05T10:21:29.188Z,17.70
2022-12-05T10:23:06.754Z,17.35
2022-12-05T10:24:43.666Z,16.90
2022-12-05T10:26:18.289Z,16.08
2022-12-05T10:27:53.323Z,16.83
2022-12-05T10:29:32.123Z,15.10
2022-12-05T10:31:14.415Z,16.25
2022-12-05T10:32:54.619Z,16.00
2022-12-05T10:34:32.768Z,15.60
2022-12-05T10:36:12.058Z,14.88
2022-12-05T10:37:48.758Z,15.93
2022-12-05T10:39:22.926Z,16.52
2022-12-05T10:40:59.252Z,16.05
2022-12-05T10:42:36.397Z,15.90
2022-12-05T10:44:09.719Z,16.48
2022-12-05T10:45:44.834Z,15.57
2022-12-05T10:47:17.706Z,15.38
2022-12-05T10:48:50.503Z,15.35
2022-12-05T10:50:26.132Z,14.30
2022-12-05T10:52:00.588Z,14.10
2022-12-05T10:53:40.283Z,14.02
2022-12-05T10:55:18.978Z,14.60
2022-12-05T10:56:53.669Z,13.75
2022-12-05T10:58:28.564Z,13.55
2022-12-05T11:00:12.828Z,11.85
2022-12-05T11:01:49.341Z,12.50
2022-12-05T11:03:31.075Z,11.93
2022-12-05T11:05:04.779Z,12.73
2022-12-05T11:06:37.619Z,13.70
2022-12-05T11:08:41.479Z,13.55
2022-12-05T11:10:26.703Z,13.25
2022-12-05T11:12:18.907Z,13.15
2022-12-05T11:13:56.971Z,12.05
2022-12-05T11:15:31.453Z,12.27
2022-12-05T11:17:06.642Z,12.00
2022-12-05T11:18:41.724Z,12.75
2022-12-05T11:20:36.921Z,13.02
2022-12-05T11:22:18.478Z,12.38
2022-12-05T11:23:51.319Z,12.30
2022-12-05T11:25:30.113Z,11.85
2022-12-05T11:27:22.441Z,11.77
2022-12-05T11:28:55.186Z,12.65
2022-12-05T11:30:29.800Z,12.80
2022-12-05T11:32:03.207Z,13.07
2022-12-05T11:33:37.392Z,14.32
2022-12-05T11:35:19.219Z,14.23
2022-12-05T11:36:57.020Z,14.55
2022-12-05T11:38:32.594Z,14.65
2022-12-05T11:40:15.418Z,14.27
2022-12-05T11:42:02.525Z,14.38
2022-12-05T11:43:58.381Z,14.43
2022-12-05T11:45:46.208Z,14.15
2022-12-05T11:47:32.606Z,13.48
2022-12-05T11:49:18.703Z,14.43
2022-12-05T11:51:05.513Z,13.57
2022-12-05T11:52:52.771Z,14.00
2022-12-05T11:55:05.337Z,14.07
2022-12-05T11:56:42.411Z,14.75
2022-12-05T11:58:42.608Z,14.48
2022-12-05T12:00:25.748Z,14.57
2022-12-05T12:02:09.199Z,14.57
2022-12-05T12:03:59.280Z,14.13
2022-12-05T12:05:36.615Z,14.73
2022-12-05T12:07:38.247Z,14.30
2022-12-05T12:09:25.562Z,14.73
2022-12-05T12:11:10.717Z,14.50
2022-12-05T12:12:52.604Z,14.73
2022-12-05T12:14:37.551Z,14.88
2022-12-05T12:16:18.300Z,13.52
2022-12-05T12:17:57.559Z,14.43
2022-12-05T12:19:52.542Z,15.20
2022-12-05T12:21:39.659Z,14.95
2022-12-05T12:23:44.467Z,15.45
2022-12-05T12:25:26.154Z,14.27
2022-12-05T12:27:06.800Z,14.32
2022-12-05T12:28:47.613Z,15.95
2022-12-05T12:30:25.256Z,14.88
2022-12-05T12:32:12.367Z,15.45
2022-12-05T12:33:50.825Z,14.73
2022-12-05T12:35:33.825Z,15.57
2022-12-05T12:37:18.690Z,15.32
2022-12-05T12:39:19.865Z,14.57
2022-12-05T12:40:55.625Z,14.65
2022-12-05T12:42:33.532Z,14.88
2022-12-05T12:44:17.702Z,14.70
2022-12-05T12:46:09.619Z,14.45
2022-12-05T12:48:07.750Z,13.65
2022-12-05T12:49:56.415Z,14.32
2022-12-05T12:51:33.383Z,14.13
2022-12-05T12:53:27.715Z,13.57
2022-12-05T12:55:14.573Z,13.15
2022-12-05T12:56:56.313Z,13.48
2022-12-05T12:58:41.431Z,13.55
2022-12-05T13:00:22.855Z,14.40
2022-12-05T13:02:01.998Z,14.32
2022-12-05T13:03:40.580Z,13.57
2022-12-05T13:05:24.361Z,14.13
2022-12-05T13:07:02.371Z,14.65
2022-12-05T13:08:41.192Z,15.10
2022-12-05T13:10:22.324Z,14.05
2022-12-05T13:11:56.886Z,15.30
2022-12-05T13:13:36.394Z,15.35
2022-12-05T13:15:16.143Z,15.15
2022-12-05T13:16:53.043Z,15.30
2022-12-05T13:18:27.689Z,15.88
2022-12-05T13:20:00.965Z,14.77
2022-12-05T13:21:34.435Z,14.70
2022-12-05T13:23:13.618Z,15.43
2022-12-05T13:24:46.645Z,15.00
2022-12-05T13:26:19.761Z,15.35
2022-12-05T13:27:58.195Z,15.80
2022-12-05T13:29:34.794Z,15.18
2022-12-05T13:31:07.723Z,15.43
2022-12-05T13:32:42.728Z,15.77
2022-12-05T13:34:50.179Z,15.82
2022-12-05T13:36:41.379Z,15.23
2022-12-05T13:38:38.997Z,15.73
2022-12-05T13:40:55.720Z,14.52
2022-12-05T13:42:33.104Z,15.25
2022-12-05T13:44:12.330Z,15.85
2022-12-05T13:46:06.722Z,15.07
2022-12-05T13:47:49.384Z,15.23
2022-12-05T13:49:31.039Z,14.43
2022-12-05T13:51:09.458Z,15.10
2022-12-05T13:52:46.618Z,16.65
2022-12-05T13:54:23.451Z,16.00
2022-12-05T13:55:59.449Z,16.25
2022-12-05T13:57:50.443Z,15.15
2022-12-05T14:00:01.697Z,16.98
2022-12-05T14:01:56.049Z,14.95
2022-12-05T14:03:57.088Z,15.70
2022-12-05T14:05:48.164Z,14.98
2022-12-05T14:07:47.075Z,15.40
2022-12-05T14:09:29.966Z,16.98
2022-12-05T14:11:11.970Z,16.65
2022-12-05T14:12:49.350Z,16.65
2022-12-05T14:15:01.805Z,17.35
2022-12-05T14:16:45.432Z,18.27
2022-12-05T14:18:31.991Z,17.25
2022-12-05T14:20:23.421Z,18.67
2022-12-05T14:22:04.703Z,18.45
2022-12-05T14:23:59.717Z,19.42
2022-12-05T14:25:59.565Z,17.42
2022-12-05T14:27:47.830Z,16.50
2022-12-05T14:29:39.812Z,18.55
2022-12-05T14:31:34.188Z,17.48
2022-12-05T14:33:16.426Z,17.65
2022-12-05T14:34:57.921Z,17.13
2022-12-05T14:36:31.655Z,16.35
2022-12-05T14:38:06.704Z,17.63
2022-12-05T14:39:44.341Z,17.70
2022-12-05T14:41:34.097Z,16.73
2022-12-05T14:43:09.436Z,16.80
2022-12-05T14:44:47.711Z,16.15
2022-12-05T14:46:25.778Z,17.00
2022-12-05T14:48:00.094Z,16.95
2022-12-05T14:49:53.624Z,15.48
2022-12-05T14:51:56.680Z,16.33
2022-12-05T14:53:48.651Z,16.70
2022-12-05T14:55:26.825Z,16.02
2022-12-05T14:57:11.008Z,16.02
2022-12-05T14:58:48.582Z,16.35
2022-12-05T15:00:24.014Z,17.30
2022-12-05T15:01:59.218Z,17.58
2022-12-05T15:03:35.851Z,16.63
2022-12-05T15:05:22.994Z,16.48
2022-12-05T15:07:00.311Z,16.98
2022-12-05T15:08:42.012Z,17.20
2022-12-05T15:10:21.044Z,17.13
2022-12-05T15:11:56.934Z,17.48
2022-12-05T15:13:31.586Z,16.52
2022-12-05T15:15:13.916Z,16.40
2022-12-05T15:16:50.046Z,17.05
2022-12-05T15:18:28.263Z,15.40
2022-12-05T15:20:05.012Z,16.70
2022-12-05T15:21:43.167Z,17.48
2022-12-05T15:23:44.422Z,17.45
2022-12-05T15:25:26.364Z,14.88
2022-12-05T15:27:04.280Z,16.85
2022-12-05T15:28:37.016Z,15.95
2022-12-05T15:30:17.100Z,15.88
2022-12-05T15:31:51.910Z,17.65
2022-12-05T15:33:26.458Z,17.48
2022-12-05T15:35:04.854Z,18.08
2022-12-05T15:36:43.673Z,17.23
2022-12-05T15:38:27.086Z,16.33
2022-12-05T15:40:02.575Z,13.55
2022-12-05T15:41:35.298Z,14.35
2022-12-05T15:43:29.540Z,14.15
2022-12-05T15:45:20.327Z,12.73
2022-12-05T15:46:54.044Z,13.93
2022-12-05T15:48:26.767Z,13.40
2022-12-05T15:49:59.692Z,15.68
2022-12-05T15:51:37.733Z,13.10
2022-12-05T15:53:17.304Z,12.98
2022-12-05T15:54:50.514Z,12.45
2022-12-05T15:56:26.492Z,12.07
2022-12-05T15:58:12.587Z,12.85
2022-12-05T15:59:53.968Z,11.30
2022-12-05T16:01:28.725Z,11.57
2022-12-05T16:03:06.624Z,11.73
2022-12-05T16:04:44.435Z,11.25
2022-12-05T16:06:20.746Z,10.73
2022-12-05T16:07:54.728Z,9.98
2022-12-05T16:09:32.230Z,10.55
2022-12-05T16:11:09.320Z,9.75
2022-12-05T16:12:43.040Z,9.95
2022-12-05T16:14:36.979Z,9.50
2022-12-05T16:16:16.729Z,12.00
2022-12-05T16:17:54.368Z,10.88
2022-12-05T16:19:28.290Z,11.05
2022-12-05T16:21:01.051Z,10.80
2022-12-05T16:22:34.362Z,11.82
2022-12-05T16:24:09.394Z,10.50
2022-12-05T16:25:42.723Z,9.73
2022-12-05T16:27:17.904Z,8.45
2022-12-05T16:29:01.350Z,9.27
2022-12-05T16:30:34.791Z,9.27
2022-12-05T16:32:19.295Z,8.80
2022-12-05T16:34:01.667Z,9.07
2022-12-05T16:35:39.749Z,9.00
2022-12-05T16:37:19.687Z,8.90
2022-12-05T16:39:00.601Z,8.52
2022-12-05T16:40:33.874Z,9.25
2022-12-05T16:42:24.403Z,9.60
2022-12-05T16:43:57.273Z,8.63
2022-12-05T16:45:41.147Z,8.98
2022-12-05T16:47:24.558Z,8.93
2022-12-05T16:49:17.913Z,8.95
2022-12-05T16:50:52.673Z,9.10
2022-12-05T16:52:31.592Z,9.07
2022-12-05T16:54:04.436Z,9.73
2022-12-05T16:55:38.323Z,9.32
2022-12-05T16:57:14.259Z,10.57
2022-12-05T16:58:47.624Z,9.40
2022-12-05T17:00:21.188Z,9.93
2022-12-05T17:01:53.935Z,9.80
2022-12-05T17:03:36.229Z,10.52
2022-12-05T17:05:14.579Z,9.35
2022-12-05T17:06:47.290Z,9.68
2022-12-05T17:08:20.123Z,10.43
2022-12-05T17:09:52.909Z,9.60
2022-12-05T17:11:27.983Z,9.13
2022-12-05T17:13:02.753Z,9.88
2022-12-05T17:14:35.507Z,9.35
2022-12-05T17:16:08.600Z,9.38
2022-12-05T17:17:41.349Z,9.23
2022-12-05T17:19:15.638Z,8.57
2022-12-05T17:20:51.058Z,8.30
2022-12-05T17:22:25.971Z,8.07
2022-12-05T17:23:58.660Z,8.02
2022-12-05T17:25:36.193Z,8.60
2022-12-05T17:27:11.758Z,8.77
2022-12-05T17:28:44.736Z,8.98
2022-12-05T17:30:17.716Z,8.65
2022-12-05T17:31:50.517Z,8.45
2022-12-05T17:33:23.300Z,7.80
2022-12-05T17:34:59.238Z,7.95
2022-12-05T17:36:35.087Z,7.45
2022-12-05T17:38:08.617Z,7.93
2022-12-05T17:39:41.319Z,7.82
2022-12-05T17:41:17.231Z,7.15
2022-12-05T17:42:49.967Z,7.70
2022-12-05T17:44:22.770Z,7.53
2022-12-05T17:45:55.578Z,7.00
2022-12-05T17:47:28.336Z,7.38
2022-12-05T17:49:01.154Z,7.20
2022-12-05T17:50:35.261Z,6.90
2022-12-05T17:52:24.579Z,7.63
2022-12-05T17:53:57.387Z,7.20
2022-12-05T17:55:30.824Z,7.43
2022-12-05T17:57:03.578Z,7.10
2022-12-05T17:58:36.314Z,7.20
2022-12-05T18:00:10.419Z,7.43
2022-12-05T18:01:43.135Z,7.55
2022-12-05T18:03:18.230Z,7.72
2022-12-05T18:04:51.128Z,7.78
2022-12-05T18:06:26.464Z,8.30
2022-12-05T18:07:59.239Z,7.90
2022-12-05T18:09:32.013Z,8.00
2022-12-05T18:11:04.747Z,8.30
2022-12-05T18:12:37.616Z,7.90
2022-12-05T18:14:10.694Z,7.90
2022-12-05T18:15:43.674Z,7.88
2022-12-05T18:17:16.582Z,7.95
2022-12-05T18:18:49.284Z,7.72
2022-12-05T18:20:22.190Z,7.65
2022-12-05T18:21:56.265Z,7.93
2022-12-05T18:23:28.985Z,8.05
2022-12-05T18:25:03.351Z,7.97
2022-12-05T18:26:36.067Z,7.25
2022-12-05T18:28:08.824Z,7.93
2022-12-05T18:29:41.582Z,7.22
2022-12-05T18:31:16.571Z,7.60
2022-12-05T18:32:49.629Z,8.10
2022-12-05T18:34:22.355Z,8.02
2022-12-05T18:35:55.092Z,7.18
2022-12-05T18:37:29.359Z,7.60
2022-12-05T18:39:02.109Z,8.65
2022-12-05T18:40:34.824Z,8.07
2022-12-05T18:42:13.325Z,8.45
2022-12-05T18:43:48.150Z,7.75
2022-12-05T18:45:21.405Z,8.00
2022-12-05T18:46:54.104Z,8.65
2022-12-05T18:48:47.188Z,8.07
2022-12-05T18:50:20.172Z,8.55
2022-12-05T18:51:53.519Z,8.07
2022-12-05T18:53:27.567Z,8.55
2022-12-05T18:55:16.150Z,8.10
2022-12-05T18:56:50.704Z,7.97
2022-12-05T18:58:24.265Z,8.88
2022-12-05T18:59:57.006Z,8.07
2022-12-05T19:01:30.902Z,8.45
2022-12-05T19:03:09.126Z,8.10
2022-12-05T19:04:42.143Z,8.02
2022-12-05T19:06:16.425Z,8.27
2022-12-05T19:07:49.165Z,8.23
2022-12-05T19:09:26.039Z,8.13
2022-12-05T19:11:04.904Z,9.07
2022-12-05T19:12:37.743Z,8.40
2022-12-05T19:14:11.343Z,8.50
2022-12-05T19:15:44.087Z,8.13
2022-12-05T19:17:16.812Z,8.25
2022-12-05T19:18:54.843Z,8.32
2022-12-05T19:20:27.599Z,8.15
2022-12-05T19:22:00.820Z,7.63
2022-12-05T19:23:34.430Z,10.93
2022-12-05T19:25:09.567Z,10.57
2022-12-05T19:26:42.332Z,9.43
2022-12-05T19:28:15.206Z,10.07
2022-12-05T19:29:47.933Z,9.93
2022-12-05T19:31:22.557Z,9.20
2022-12-05T19:32:55.311Z,9.15
2022-12-05T19:34:28.010Z,14.27
2022-12-05T19:36:06.506Z,11.50
2022-12-05T19:37:39.283Z,9.50
2022-12-05T19:39:16.110Z,9.93
2022-12-05T19:40:57.446Z,9.50
2022-12-05T19:42:31.020Z,8.63
2022-12-05T19:44:04.525Z,8.20
2022-12-05T19:45:39.303Z,8.32
2022-12-05T19:47:12.059Z,9.07
2022-12-05T19:48:45.211Z,10.80
2022-12-05T19:50:18.171Z,10.23
2022-12-05T19:51:51.060Z,13.30
2022-12-05T19:53:24.265Z,12.23
2022-12-05T19:54:57.004Z,9.35
2022-12-05T19:56:32.892Z,8.60
2022-12-05T19:58:05.622Z,7.82
2022-12-05T19:59:38.462Z,8.98
2022-12-05T20:01:13.259Z,7.32
2022-12-05T20:02:46.269Z,7.55
2022-12-05T20:04:19.681Z,7.63
2022-12-05T20:06:01.948Z,7.53
2022-12-05T20:07:34.705Z,8.20
2022-12-05T20:09:08.681Z,7.97
2022-12-05T20:10:41.384Z,7.85
2022-12-05T20:12:15.470Z,7.15
2022-12-05T20:13:48.557Z,7.47
2022-12-05T20:15:21.470Z,8.38
2022-12-05T20:16:54.532Z,7.68
2022-12-05T20:18:27.367Z,7.22
2022-12-05T20:20:00.272Z,8.20
2022-12-05T20:21:34.947Z,7.68
2022-12-05T20:23:07.948Z,7.50
2022-12-05T20:24:40.690Z,7.65
2022-12-05T20:26:16.297Z,7.60
2022-12-05T20:27:51.851Z,7.05
2022-12-05T20:29:24.571Z,7.40
2022-12-05T20:31:05.106Z,6.75
2022-12-05T20:32:37.862Z,7.22
2022-12-05T20:34:13.289Z,7.93
2022-12-05T20:35:46.028Z,6.80
2022-12-05T20:37:18.755Z,6.40
2022-12-05T20:38:56.444Z,7.22
2022-12-05T20:40:29.404Z,7.75
2022-12-05T20:42:02.152Z,7.45
2022-12-05T20:43:36.279Z,7.28
2022-12-05T20:45:09.870Z,7.10
2022-12-05T20:46:42.839Z,7.47
2022-12-05T20:48:15.543Z,6.90
2022-12-05T20:49:48.331Z,7.25
2022-12-05T20:51:23.234Z,6.88
2022-12-05T20:52:55.969Z,7.45
2022-12-05T20:54:28.712Z,7.25
2022-12-05T20:56:04.800Z,7.50
2022-12-05T20:57:37.507Z,7.07
2022-12-05T20:59:14.080Z,6.90
2022-12-05T21:00:46.884Z,6.75
2022-12-05T21:02:19.731Z,6.97
2022-12-05T21:03:56.283Z,7.80